Banbury 15 External Results
Banbury
17 Mar 19
Head to Head - to compare runners check 2 or more boxes below and then click
 
15M
PosGunChip   Name AG ClubSBPBHC  
185:2585:24   James Bolton  V45MWoodstock/Abingdon85:2483:22-2.1 
288:1388:11   Sam Upton  SENMWitney88:1188:11-1.1 
388:3388:33   Gareth Petts PBSENMWitney88:3388:33-0.1 
489:5889:58   Paul Fernandez SBV40MAbingdon89:5885:42-0.4 
590:3790:35   Matthew Lock  U20MWitney90:3590:35-0.3 
691:2491:21   Paul Leverton  V35MAlchester91:2191:212.6 
792:4492:42   Graham Hope  V35MKidlington92:4292:42-0.6 
894:1094:10   Mark Baker PBSENMEynsham94:1094:101.3 
994:4094:37   Alistair Herbert  SENMCherwell94:3794:370.2 
1095:0194:58   Ian Keen V40M     
1195:2495:21   Neil Greig  V40MAlchester95:2195:211.8 
1295:3695:32   Carlos Zaragoza SENM     
1396:0395:58   Paul Jegou  V40MWhite Horse/Radley/Southern Counties Vets95:5886:440.5 
1496:1796:15   Robert Storey  V50MEynsham96:1594:491.9 
1596:4896:45   Thomas High SENM     
1697:0997:05   Joanne McCandless V35W     
1797:1697:14   David Cantwell  V50MWoodstock97:1490:442.6 
1898:0297:59   Seth Cayley PBV35MHeadington97:5997:592.9 
1998:1498:11   Jason Smith PBV45MHeadington98:1198:113.0 
2098:3798:27   Andy Marshall SENMHeadington RR    
2198:4698:43   Sean Duvall PBV35MEynsham98:4398:432.7 
2298:4998:47   Edwina McDowall  V45WHeadington/Tri2o98:4798:473.8 
2399:2199:18   Richard Simkiss  V35MMcCarkiss Endurance Project99:1884:341.8 
2499:4099:37   Lee Tolhurst  V45MOverton/Andover/Southern Counties Vets99:3799:373.4 
251:40:421:40:36   Steve Round  V40MCherwell1:40:3693:185.1 
261:41:011:40:56   Pearce Phillips  V50MDidcot Runners1:40:5699:173.8 
271:41:111:41:07   John Fenning  SENMHeadington1:41:071:41:073.0 
281:41:171:41:11   Ryan Bush V40M     
291:41:211:41:12   Carl Gaden  V50MHeadington1:41:121:41:123.7 
301:41:521:41:45   Dewi Thomas PBV40MCherwell1:41:451:41:456.0 
311:42:281:42:23   James Willard  V35MAbingdon1:42:231:42:235.0 
321:42:431:42:39   Stafford Sansome PBSENMUnattached1:42:391:42:396.1 
331:43:591:43:55   Shaun O'Gorman  V50MAlchester1:43:551:39:094.4 
341:44:191:44:14   Graham Ferris  V50MWitney1:44:1499:426.2 
351:44:281:44:28   Daniel Drummond SENM     
361:44:481:44:43   Daniel Fisher SENM     
371:45:591:45:51   Diane Foster  V40WHeadington1:45:5198:393.7 
381:46:051:46:01   Ian Hunter  V45MAlchester1:46:0196:414.8 
391:46:221:46:16   Andrew Muir  V40MAbingdon1:46:161:46:166.4 
401:46:311:46:19   Vincent Gould V40M     
411:46:581:46:55   Katy Young  SENWUnattached1:46:551:46:037.7 
421:47:041:47:00   Lee Godber  V35MBicester Tri1:47:001:47:005.0 
431:47:071:46:58   James Greenaway SENM     
441:47:201:47:17   Chris Bedford  V50MAbingdon1:47:1798:585.4 
451:47:381:47:34   Melissa Venables PBV40WSpa Striders1:47:341:47:349.4 
461:47:471:47:39   Mike Healey V40MHeadington RR    
471:47:571:47:40   Faye Sharpley  SENWThame1:47:401:47:405.8 
481:48:051:48:05   Richard Popiel V50M     
491:48:081:47:59   Mark Jones  V55MHeadington/Unattached1:47:591:47:596.7 
501:48:131:48:13   Ralf Arneil PBV45MWoodstock1:48:131:48:137.7 
511:48:271:48:19   Gareth Birkett SENMCherwell Runners & Joggers    
521:48:301:48:30   Alex Scott V40M     
531:48:391:48:33   Kate Allred  V45WEynsham1:48:331:48:335.2 
541:48:481:48:43   James Cusack  V40MStratford-upon-Avon1:48:431:48:435.9 
551:48:571:48:52   Peter Newell V40M     
561:49:091:49:02   Robby Taylor  SENMBuckingham & Stowe1:49:021:49:024.6 
571:50:211:50:18   Caitlin Bradley  SENWBanbury/Thames Turbo/St. Mary's Uni/Bicester1:50:181:50:1818.5 
581:50:391:50:23   Edwina M Colclough PBV35WAlchester1:50:231:50:237.7 
591:50:471:50:42   Mark Lewy  V55MAbingdon1:50:421:42:316.7 
601:50:511:50:39   Vincente Bayliss  SENMAlchester1:50:391:46:017.3 
611:51:041:50:59   Tina Wise  V40WDidcot Runners1:50:591:50:598.0 
621:51:301:51:19   Kate Anna Daniels  V35WWhite Horse/Headington1:51:191:51:198.8 
631:52:031:51:46   Will Mcmanus V40M     
641:52:121:52:02   Neil Simmonds V40M     
651:52:171:52:10   Paul Brame PBV45MHeadington1:52:101:52:106.6 
661:52:201:52:14   Tom Clarke PBV45MAbingdon/Midland Masters1:52:141:52:147.6 
671:52:401:52:40   Imran Gulamhuseinwala V40M     
681:52:431:52:33   Kurt Trinder PBV45MCherwell1:52:331:52:338.0 
691:52:521:52:43   Danny Batchelor  V55MCherwell1:52:431:52:437.6 
701:53:061:52:59   Matthew Hayward V40MRugby tri    
711:53:331:53:21   George Adams SENM     
721:53:541:53:54   Benedict Kimpton PBV40MUnattached1:53:541:53:547.7 
731:53:571:53:43   Simon Best  V50MAlchester1:53:431:53:098.9 
741:53:571:53:47   James Messer  V45MHeadington1:53:471:53:476.1 
751:54:181:54:08   Amy Read  V35WHeadington1:54:081:54:0810.5 
761:54:261:54:18   Rachel Piper  V40WCherwell1:54:181:54:189.0 
771:54:321:54:32   Alan Bowen PBV40MAlchester1:54:321:54:326.3 
781:54:461:54:38   Owen Lewis  V45MUnattached1:54:381:54:387.2 
791:55:021:54:52   Peter Barzetovic  V55MNuneaton1:54:521:54:527.7 
801:55:101:54:52   Neil Salmons  V55MAbingdon/Unattached1:54:521:54:526.6 
811:55:121:55:12   Beth Owen SENW     
821:55:131:55:06   Marie Sucksmith V35W     
831:55:361:55:27   Andrew MacDonald  V45MCherwell1:55:271:44:159.5 
841:55:511:55:42   Luthfer Rahman  V45MKidlington1:55:421:55:4210.3 
851:56:001:55:44   Bryan Pears  V50MSphinx1:55:441:50:319.8 
861:56:291:56:23   Andrew Lister  V50MKidlington1:56:231:56:238.3 
871:56:301:56:23   Neil Pasmore  V45MBuckingham & Stowe1:56:231:56:2310.4 
881:56:491:56:39   John-Paul Hamilton  V45MCherwell1:56:391:56:399.9 
891:57:001:57:00   Stuart Newman SENM     
901:57:071:57:07   David Pettifer SBV65MKenilworth Runners/Midland Masters1:57:071:50:398.9 
911:57:111:57:05   Simon Hull  V45MBuckingham & Stowe1:57:051:57:056.0 
921:57:111:57:05   David Morris V50MBuckingham & Stowe RC    
931:57:171:57:05   Nick Atkinson V40M     
941:57:311:57:26   Jonathan Carruthers  SENMBanbury1:57:261:57:265.8 
951:57:451:57:38   Greg Ball  V45MSilson1:57:381:57:389.3 
961:57:511:57:33   Max Davison V50M     
971:57:561:57:48   Simon Marc Leech  V50MWhite Horse1:57:481:45:285.9 
981:57:561:57:49   Pippa Mack  V35WWhite Horse1:57:491:57:499.6 
991:58:001:57:41   Matthew Grainge V40MAlchester Running Club    
1001:58:431:58:35   Leo Brooke-little  V50MWoodstock1:58:351:57:3210.5 
1011:58:461:58:42   Nicholas Tuttle  SENMHeadington1:58:421:58:4211.1 
1021:59:161:58:59   Tom Guy  SENMUnattached1:58:591:58:593.5 
1031:59:201:59:04   Peter Hellawell SENMHeadington RR    
1041:59:261:59:13   Brian Moore PBV55MWitney1:59:131:59:138.4 
1051:59:271:59:16   Lindsey Smith  V45WWitney1:59:161:59:169.4 
1061:59:311:59:07   Lee Davies V50M     
1071:59:421:59:27   Will Bowden-Green  V35MHeadington1:59:271:59:2711.1 
1081:59:461:59:39   Katie Webster  V35WKidlington1:59:391:59:3911.7 
1091:59:541:59:34   Ian Geddes V40M     
1102:00:172:00:04   Ian Whitehead  V50MCherwell2:00:041:58:4210.1 
1112:01:332:01:23   Liz McGill PBV40WAbingdon2:01:232:01:2311.5 
1122:01:342:01:25   Lee Needle PBV35MKidlington2:01:252:01:2513.6 
1132:01:372:01:33   Charlotte Drummond SENW     
1142:01:532:01:49   Craig Howkins SENM     
1152:02:182:02:04   Emma Croft PBV35WHeadington2:02:042:02:0412.1 
1162:03:192:03:00   Dean Slatter  SENMCherwell2:03:002:03:009.4 
1172:03:222:03:18   Edward Gutteridge  V45MDidcot Runners2:03:182:03:1812.6 
1182:03:242:03:15   Rachel Temple-Fry SENW     
1192:03:342:03:23   Charlotte Sugden  SENWHeadington2:03:232:03:2310.3 
1202:03:412:03:34   Mel Knight V35W     
1212:03:422:03:24   John Inskip  V50MCherwell2:03:242:03:2413.7 
1222:03:472:03:47   Andrea Finnigan SBV40WKidlington2:03:471:55:4211.6 
1232:03:542:03:40   Alexander (Billy) Rendell  SENMWitney2:03:402:03:408.1 
1242:04:062:03:58   Rose Ashton  V35WCherwell2:03:582:03:5813.0 
1252:04:092:03:56   Melanie Cassidy  V40WWitney2:03:562:03:5612.8 
1262:04:502:04:31   David Rushton SENM     
1272:05:482:05:34   Philomena Mburu  V60WCompton2:05:341:54:2912.7 
1282:05:522:05:38   Lucy Tapper Howe  V45WKidlington2:05:382:05:3814.2 
1292:06:042:05:57   Linda Lytollis  V45WSilson2:05:572:01:3914.7 
1302:06:262:06:20   Nicholas Hamilton  V60MAbingdon2:06:201:46:2212.2 
1312:06:452:06:33   Alice Parsons  SENWWitney2:06:332:06:339.3 
1322:06:492:06:30   John Critchfield PBV55MHook Norton2:06:302:06:3016.4 
1332:07:062:06:57   Anna Mackin  SENWEynsham2:06:572:06:5711.7 
1342:07:132:07:07   Debbie Morris  V50WBuckingham & Stowe2:07:072:07:0713.4 
1352:07:282:07:21   Paul Rockey V50M     
1362:08:122:07:56   Martin Clark V50M     
1372:08:142:08:03   Madeleine Ding  V35WHeadington2:08:031:56:3211.9 
1382:08:172:08:07   Lucy Harris  V45WWitney2:08:072:03:2412.8 
1392:08:182:08:08   Lisa Butler  V40WWitney2:08:082:08:0811.3 
1402:08:192:08:08   Laura Davies  V35WWitney2:08:082:08:0813.4 
1412:08:252:08:12   Tori Wells SENWHeadington RR    
1422:08:462:08:31   Shaun Byrne  V35MCherwell2:08:312:08:3113.6 
1432:08:542:08:36   Yvonne Gajny  V40WStratford-upon-Avon2:08:362:08:3613.2 
1442:09:452:09:36   Kate Williamson  V70WEynsham2:09:362:00:2914.3 
1452:09:572:09:35   Charles Murphy V50M     
1462:10:052:09:54   James Ruddick  V40MKidlington2:09:542:09:5415.5 
1472:10:252:10:12   Sam Adams SENM     
1482:10:282:10:08   Zoe Martindale  V35WAlchester2:10:082:10:0824.0 
1492:10:442:10:37   Sue Torrance  V55WSilson2:10:371:56:0512.7 
1502:11:182:10:50   Andrew Berry SENM     
1512:11:212:11:06   Malcolm Brown  V60MHook Norton2:11:061:54:0915.9 
1522:11:232:11:11   Chris Foxall V40M     
1532:11:502:11:28   Elizabeth Turner V45WHeadington RR    
1542:11:552:11:40   Philip Lister  V60MHeadington2:11:401:58:3916.3 
1552:12:052:11:52   Brynmor Phillips SENMLonely Goat RC    
1562:12:202:12:16   Charlie Mitchell  SENWLeamington/Leamington Athletics Academy2:12:162:12:1616.7 
1572:12:302:12:14   Keith Moreman  V70MDaventry Road Runners2:12:142:00:2112.3 
1582:12:312:12:20   Linda McDonald  V40WCoventry2:12:202:12:2020.7 
1592:13:022:12:40   Athanasia Varney V45WHeadington RR    
1602:13:072:12:41   David Jarrett  V55MSilson2:12:412:12:4112.6 
1612:13:122:12:56   Richard Palmer V50M     
1622:13:482:13:37   Jennifer Swarbrick  V35WAbingdon2:13:372:13:3713.2 
1632:13:532:13:53   Roger Eadon V50M     
1642:13:572:13:39   Ingrid Salisbury  SENWAlchester2:13:392:13:3915.3 
1652:13:582:13:40   Wendy Hunter  V45WAlchester2:13:401:58:5114.5 
1662:14:132:14:02   Tim Pocock  V55MRipon2:14:022:14:0211.6 
1672:14:342:14:27   Livi Ferrie SENWSilson AC    
1682:14:372:14:29   Justin Foley V40M     
1692:15:152:14:55   Mark Creasey  V60MEynsham2:14:552:00:1216.3 
1702:15:252:15:14   David Osborne  V45MCherwell2:15:141:53:0913.1 
1712:15:322:15:23   Dawn Osborne  V50WCherwell2:15:232:15:2317.0 
1722:16:252:16:18   Daniel Eisenhandler  V50MWoodstock2:16:182:04:248.7 
1732:16:272:16:01   Ben Olney SENM     
1742:17:082:16:56   Brad Hook  V50MBrackley2:16:562:16:5610.6 
1752:17:152:17:01   Simon Rhodes  V45MWitney2:17:012:17:0112.9 
1762:17:222:17:04   Alison Craggs  V40WEynsham2:17:042:17:0414.1 
1772:17:312:17:17   Louise Rhodes  V45WWitney2:17:172:17:1715.1 
1782:17:542:17:34   Aleks Krzyzowska SENWAlchester Running Club    
1792:18:042:17:43   Nicky Wootton V45W     
1802:18:292:18:06   Simon Smith SENM     
1812:18:452:18:25   Clare Burnby  V50WAlchester2:18:252:18:2515.2 
1822:18:502:18:32   Jane Garton  V45WEynsham2:18:322:11:5414.0 
1832:19:182:19:08   Anita James  V50WHeadington2:19:082:08:4214.5 
1842:19:302:19:15   Julian Bowden-Williams V40M     
1852:19:442:19:26   Nicci Burton V35W     
1862:19:482:19:34   Lee Vanstone SENMWitney Road Runners    
1872:19:512:19:44   Caroline Richards  V60WAdderbury2:19:442:18:0115.1 
1882:20:142:19:57   Kimberley Hopkinson  SENWCherwell2:19:572:19:5716.3 
1892:20:192:19:57   Eileen Doherty V45W     
1902:20:232:20:05   Amy Russell SENWBanbury Harriers    
1912:20:442:20:20   Ann Bowles  V65WMarlow Striders2:20:202:20:2017.3 
1922:21:322:21:19   Christine Childs  V45WHeadington2:21:192:11:5414.1 
1932:22:032:21:42   John Moss SENWBanbury Harriers    
1942:22:052:21:43   Chris Rolls V40M     
1952:22:072:21:55   Jill Thomas  V45WHeadington2:21:552:21:5515.9 
1962:22:302:22:17   Jackie Duvall  V60WHeadington2:22:172:22:1718.4 
1972:22:382:22:17   Karen White SENW     
1982:23:162:22:57   Steve Payne V60M     
1992:23:332:23:12   Lawrence O'Sullivan SENM     
2002:23:362:23:20   Bethany Whitehead SENW     
2012:23:482:23:26   Lucy Hamilton  V60WAbingdon2:23:262:23:2619.7 
2022:23:482:23:26   Liz Bedford  V50WAbingdon2:23:262:23:2617.0 
2032:23:572:23:38   Cathy Keay  V50WMassey Ferguson2:23:382:23:3818.6 
2042:25:182:25:00   Sharon Christie PBV55WWitney2:25:002:25:0021.4 
2052:25:472:25:26   Beverley Brigden  V55WStratford-upon-Avon2:25:262:25:2617.1 
2062:25:572:25:35   Helen Budd SENW     
2072:26:082:25:52   Craig Pears  SENMSphinx2:25:521:59:5418.7 
2082:26:242:26:12   Sandra Harding-Brown PBV50WHeadington2:26:122:26:1218.6 
2092:27:132:26:50   Allan Lock  V75MMidland Masters2:26:502:12:4620.3 
2102:28:052:27:47   Ieva Smith V35W     
2112:28:052:27:47   Tracey Moss  V45WWitney2:27:472:15:4420.9 
2122:29:142:29:01   Clarissa Worth  V40WKidlington2:29:012:29:0118.3 
2132:29:312:29:24   Suzanne Taylor  V40WAdderbury2:29:242:09:0713.1 
2142:31:122:30:52   Jen Whiteside SENW     
2152:31:292:31:08   Rachel Brock  V40WMassey Ferguson2:31:082:31:0819.4 
2162:31:402:31:24   Andy Keys V50M     
2172:32:072:31:50   Zoe Wicker SENW     
2182:32:262:32:16   Thomas Dable  V70MKenilworth Runners2:32:162:05:2620.0 
2192:32:592:32:40   Wendy Foxall V45WMassey Ferguson RC    
2202:35:032:34:53   Liz Hegan  V50WKenilworth Runners2:34:532:24:5224.0 
2212:35:152:34:54   Rachel Spence  V50WStratford-upon-Avon2:34:542:34:5433.3 
2222:36:262:36:06   Mike Rowe V60M     
2232:37:502:37:36   Rachel Rahman  V45WKidlington2:37:362:37:3621.8 
2242:37:562:37:43   Joanne Smith V45WKidlington Running Club    
2252:38:122:37:50   Alice Hall SENW     
2262:38:352:38:10   Hannah Grayson  SENWHeadington2:38:102:38:1021.3 
2272:38:592:38:35   Stephanie Hill V35W     
2282:39:002:38:36   Allison Maybrey  V45WWitney2:38:362:38:3623.3 
2292:39:512:39:29   Phillipa Abrams  V45WStratford-upon-Avon2:39:292:39:2921.7 
2302:43:082:42:45   Kathy Clarke  V35WAbingdon2:42:452:42:4520.7 
2312:43:352:43:13   Martin Baker V40M     
2322:44:052:43:50   Katie Rhymes  V35WKidlington2:43:502:43:5026.4 
2332:44:272:44:07   Alison Lowe  V55WMassey Ferguson2:44:072:44:0720.8 
2342:44:322:44:16   Kathryn Andrews  V45WAlchester2:44:162:44:1623.2 
2352:45:082:44:52   Gillian Warson V55W     
2362:47:042:46:53   Pauline Dable  V70WKenilworth Runners2:46:532:15:3723.7 
2372:49:502:49:36   Matteo Nasi  V40MHeadington2:49:362:49:3625.0 
2382:50:182:49:59   Phyllis Douglas  V65WMassey Ferguson2:49:592:49:5925.6 
2392:50:192:50:00   Jason Douglas  V40MMassey Ferguson2:50:002:50:0016.8 
2402:57:292:57:14   Rebecca Draper  SENWMassey Ferguson2:57:142:57:1427.5 
2412:58:152:57:55   Claire Newman  V35WMassey Ferguson2:57:552:57:5526.9 
2423:04:203:03:55   Samantha Bates  SENWHeadington3:03:553:03:5525.2 
2433:14:073:13:53   Rachel Adams SENW     
2443:16:133:15:52   Alex Bond V35W     
2453:17:273:17:02   Niamh Simpson  V45WHeadington3:17:023:17:0231.0 
2463:17:323:17:07   Sarah L Ledingham  V55WHeadington3:17:073:17:0728.1 
2473:17:513:17:26   Pamela Smith  V70WHeadington3:17:262:52:5231.1 
2483:17:523:17:27   Catherine Grasham  SENWHeadington3:17:273:17:2728.9 
2493:25:043:24:54   David Phillips  V75MMassey Ferguson3:24:543:24:5431.4